Time;durP1;ratioP1;P1;durP2;ratioP2;P2;SDS_P1;SDS_P2;PMS_P1;PMS_P2;Temp;Humidity;BMP_temperature;BMP_pressure;BME280_temperature;BME280_humidity;BME280_pressure;Samples;Min_cycle;Max_cycle;Signal;HPM_P1;HPM_P2
2021/06/18 00:01:13;;;;;;;10.88;7.88;;;;;;;15.49;76.13;94180.44;5105214;28;20035;-74
2021/06/18 00:03:38;;;;;;;16.35;8.60;;;;;;;15.52;76.07;94177.06;5113476;27;20016;-74
2021/06/18 00:06:04;;;;;;;14.90;7.63;;;;;;;15.56;75.69;94179.88;5112016;27;20054;-74
2021/06/18 00:08:29;;;;;;;14.30;7.40;;;;;;;15.56;75.74;94171.81;5103554;28;20016;-74
2021/06/18 00:10:55;;;;;;;11.45;5.90;;;;;;;15.50;75.43;94163.19;5098207;28;20400;-74
2021/06/18 00:13:20;;;;;;;18.08;6.55;;;;;;;15.38;75.86;94150.53;5110692;28;20046;-74
2021/06/18 00:15:46;;;;;;;9.55;5.75;;;;;;;15.25;76.35;94146.28;5110032;28;20022;-74
2021/06/18 00:18:11;;;;;;;9.77;5.78;;;;;;;15.20;76.93;94138.44;5104500;28;20032;-73
2021/06/18 00:20:37;;;;;;;7.88;5.22;;;;;;;15.16;77.23;94137.53;5095571;28;20030;-73
2021/06/18 00:23:02;;;;;;;8.35;6.25;;;;;;;15.15;77.38;94141.38;5106152;28;20051;-74
2021/06/18 00:25:27;;;;;;;9.20;5.40;;;;;;;15.17;77.14;94139.91;5108614;28;20024;-74
2021/06/18 00:27:56;;;;;;;11.88;6.38;;;;;;;15.20;77.15;94147.31;5092740;28;20028;-74
2021/06/18 00:30:21;;;;;;;7.25;5.07;;;;;;;15.24;77.03;94147.41;5091525;28;20024;-74
2021/06/18 00:32:47;;;;;;;15.20;6.30;;;;;;;15.28;76.85;94159.03;5095565;28;20036;-74
2021/06/18 00:35:12;;;;;;;17.88;5.97;;;;;;;15.31;76.54;94161.06;5099059;28;20042;-75
2021/06/18 00:37:38;;;;;;;9.38;5.53;;;;;;;15.36;76.02;94163.50;5113337;28;20126;-74
2021/06/18 00:40:04;;;;;;;16.73;4.80;;;;;;;15.33;76.26;94163.41;5097376;28;20028;-74
2021/06/18 00:42:30;;;;;;;11.55;5.20;;;;;;;15.30;76.06;94164.84;5095395;28;20031;-74
2021/06/18 00:44:55;;;;;;;12.35;5.32;;;;;;;15.33;76.26;94164.19;5091138;28;20036;-74
2021/06/18 00:47:22;;;;;;;10.55;5.50;;;;;;;15.33;76.25;94156.13;5109249;28;20031;-74
2021/06/18 00:49:50;;;;;;;8.85;5.57;;;;;;;15.34;76.25;94141.56;5101724;28;20527;-74
2021/06/18 00:52:16;;;;;;;6.47;4.47;;;;;;;15.36;76.23;94147.41;5093995;28;20028;-75
2021/06/18 00:54:44;;;;;;;9.48;5.43;;;;;;;15.37;76.11;94143.59;5106099;28;20028;-75
2021/06/18 00:57:10;;;;;;;7.35;5.30;;;;;;;15.38;75.86;94147.84;5112601;28;20213;-74
2021/06/18 00:59:35;;;;;;;8.75;5.20;;;;;;;15.40;75.81;94144.84;5111346;28;20158;-74
2021/06/18 01:02:01;;;;;;;10.93;5.47;;;;;;;15.42;75.78;94147.97;5103453;28;20040;-74
2021/06/18 01:04:29;;;;;;;12.27;4.72;;;;;;;15.45;75.50;94142.72;5095955;28;20528;-74
2021/06/18 01:07:27;;;;;;;7.18;4.50;;;;;;;15.40;75.42;94136.78;5089644;28;20024;-74
2021/06/18 01:10:11;;;;;;;13.05;4.93;;;;;;;15.38;75.23;94147.06;5061797;28;20408;-74
2021/06/18 01:13:13;;;;;;;6.15;4.70;;;;;;;15.31;75.31;94144.94;5102688;28;20431;-74
2021/06/18 01:15:55;;;;;;;8.77;4.88;;;;;;;15.36;75.11;94139.34;5095699;28;20199;-74
2021/06/18 01:18:29;;;;;;;10.27;6.15;;;;;;;15.34;75.32;94136.22;5105201;28;20099;-74
2021/06/18 01:21:16;;;;;;;9.77;5.68;;;;;;;15.33;75.51;94140.03;5104744;28;20406;-74
2021/06/18 01:23:44;;;;;;;8.63;5.35;;;;;;;15.34;75.44;94136.22;5105355;28;20026;-75
2021/06/18 01:26:22;;;;;;;9.32;6.65;;;;;;;15.32;75.30;94135.75;5110708;28;20118;-75
2021/06/18 01:29:02;;;;;;;11.93;6.35;;;;;;;15.32;75.48;94141.13;5112293;28;20036;-74
2021/06/18 01:31:31;;;;;;;11.55;6.18;;;;;;;15.32;75.21;94138.44;5110122;28;20043;-74
2021/06/18 01:34:04;;;;;;;9.80;5.72;;;;;;;15.33;75.21;94133.88;5099479;28;20051;-73
2021/06/18 01:36:31;;;;;;;8.07;6.03;;;;;;;15.25;75.01;94130.19;5089909;28;20040;-74
2021/06/18 01:38:59;;;;;;;10.98;5.60;;;;;;;15.28;75.12;94134.09;5098674;28;20031;-74
2021/06/18 01:41:29;;;;;;;7.70;4.70;;;;;;;15.28;75.14;94128.72;5091736;28;20054;-74
2021/06/18 01:43:58;;;;;;;6.95;4.82;;;;;;;15.28;74.90;94134.09;5107553;28;20376;-74
2021/06/18 01:46:30;;;;;;;8.43;4.85;;;;;;;15.31;74.93;94138.81;5111412;28;20028;-72
2021/06/18 01:48:58;;;;;;;8.77;4.43;;;;;;;15.30;74.87;94138.00;5110341;28;20529;-71
2021/06/18 01:51:27;;;;;;;9.20;5.05;;;;;;;15.29;74.82;94147.19;5111435;28;20110;-72
2021/06/18 01:53:56;;;;;;;8.60;4.55;;;;;;;15.29;74.82;94147.19;5110202;28;20028;-72
2021/06/18 01:56:23;;;;;;;10.80;5.88;;;;;;;15.30;74.77;94131.84;5110244;28;20023;-72
2021/06/18 01:58:51;;;;;;;11.38;5.50;;;;;;;15.21;74.94;94142.72;5109967;28;20039;-72
2021/06/18 02:01:18;;;;;;;9.70;4.88;;;;;;;15.20;75.03;94139.25;5111521;28;20100;-73
2021/06/18 02:03:45;;;;;;;8.32;4.03;;;;;;;15.24;75.03;94139.34;5111379;28;20023;-73
2021/06/18 02:06:14;;;;;;;9.32;5.10;;;;;;;15.19;75.23;94134.22;5110067;28;20424;-72
2021/06/18 02:08:42;;;;;;;7.75;5.13;;;;;;;15.16;75.16;94132.19;5110987;28;20032;-72
2021/06/18 02:11:08;;;;;;;11.82;4.20;;;;;;;15.18;75.05;94141.47;5109815;28;20027;-72
2021/06/18 02:13:34;;;;;;;11.52;5.00;;;;;;;15.15;74.95;94146.72;5109788;28;20046;-72
2021/06/18 02:16:00;;;;;;;9.15;4.93;;;;;;;15.15;74.85;94141.38;5111263;28;20031;-73
2021/06/18 02:18:28;;;;;;;16.60;4.38;;;;;;;15.22;74.45;94144.25;5111229;28;20027;-72
2021/06/18 02:20:57;;;;;;;9.07;4.13;;;;;;;15.18;74.98;94143.38;5109590;28;20041;-73
2021/06/18 02:23:26;;;;;;;8.52;4.35;;;;;;;15.13;74.87;94144.38;5111163;28;20023;-73
2021/06/18 02:25:52;;;;;;;7.25;3.95;;;;;;;15.12;74.87;94142.03;5109494;28;20118;-73
2021/06/18 02:28:20;;;;;;;12.88;3.78;;;;;;;15.05;75.25;94147.94;5110910;28;20545;-72
2021/06/18 02:30:46;;;;;;;7.45;3.72;;;;;;;15.02;75.27;94140.56;5110563;28;20035;-73
2021/06/18 02:33:12;;;;;;;10.90;3.70;;;;;;;15.02;75.23;94146.72;5110812;28;20115;-72
2021/06/18 02:35:39;;;;;;;7.78;3.70;;;;;;;15.04;75.04;94149.06;5110818;28;20536;-72
2021/06/18 02:38:06;;;;;;;15.00;4.47;;;;;;;15.05;74.83;94145.25;5110336;28;20027;-73
2021/06/18 02:40:31;;;;;;;6.30;3.92;;;;;;;14.97;75.11;94140.78;5110667;28;20027;-72
2021/06/18 02:42:56;;;;;;;9.05;4.03;;;;;;;14.97;75.00;94141.56;5110477;28;20079;-72
2021/06/18 02:45:22;;;;;;;8.02;4.00;;;;;;;15.00;74.95;94134.72;5110900;28;20031;-72
2021/06/18 02:48:06;;;;;;;5.88;3.95;;;;;;;15.00;74.97;94135.53;5109179;28;20422;-73
2021/06/18 02:50:39;;;;;;;6.90;3.30;;;;;;;14.94;74.81;94142.25;5109302;28;20474;-73
2021/06/18 02:53:42;;;;;;;11.40;3.97;;;;;;;14.95;74.75;94138.41;5110195;28;20051;-73
2021/06/18 02:56:13;;;;;;;10.63;3.10;;;;;;;14.93;74.50;94140.66;5047426;28;20036;-72
2021/06/18 02:58:54;;;;;;;5.40;3.35;;;;;;;14.90;74.31;94148.59;5096628;28;20072;-72
2021/06/18 03:01:24;;;;;;;14.48;3.70;;;;;;;14.86;74.65;94153.84;5108686;28;20020;-72
2021/06/18 03:03:55;;;;;;;10.32;4.32;;;;;;;14.80;74.64;94157.88;5110398;28;20020;-72
2021/06/18 03:06:21;;;;;;;7.07;3.83;;;;;;;14.81;74.97;94164.78;5110397;28;20031;-73
2021/06/18 03:08:54;;;;;;;5.32;3.80;;;;;;;14.82;75.06;94155.63;5110387;28;20050;-73
2021/06/18 03:11:25;;;;;;;13.10;4.40;;;;;;;14.84;75.12;94164.91;5110383;28;20024;-73
2021/06/18 03:13:54;;;;;;;7.90;4.32;;;;;;;14.82;75.27;94163.69;5110370;28;20474;-73
2021/06/18 03:16:21;;;;;;;11.57;4.65;;;;;;;14.83;75.86;94165.22;5108728;28;20405;-73
2021/06/18 03:18:49;;;;;;;14.45;5.15;;;;;;;14.88;76.04;94169.59;5104853;28;20077;-71
2021/06/18 03:21:14;;;;;;;8.77;5.22;;;;;;;14.92;76.50;94170.50;5097163;28;20110;-70
2021/06/18 03:23:41;;;;;;;16.70;7.65;;;;;;;14.97;76.79;94160.34;5104459;28;20100;-71
2021/06/18 03:26:08;;;;;;;20.73;7.10;;;;;;;14.98;76.69;94164.59;5101723;28;20028;-71
2021/06/18 03:28:34;;;;;;;11.70;7.85;;;;;;;15.03;77.29;94164.38;5103820;28;20034;-71
2021/06/18 03:31:01;;;;;;;16.40;8.20;;;;;;;15.08;77.64;94167.97;5108674;28;20027;-71
2021/06/18 03:33:27;;;;;;;14.77;7.20;;;;;;;15.19;77.58;94167.19;5093678;28;20096;-71
2021/06/18 03:35:54;;;;;;;9.90;7.53;;;;;;;15.27;77.20;94162.84;5101911;28;20023;-71
2021/06/18 03:38:20;;;;;;;15.40;8.25;;;;;;;15.30;76.48;94167.53;5092381;28;20028;-70
2021/06/18 03:40:47;;;;;;;12.23;7.90;;;;;;;15.37;76.51;94157.03;5104012;28;20024;-71
2021/06/18 03:43:14;;;;;;;13.80;8.65;;;;;;;15.43;76.24;94162.97;5094144;28;20144;-71
2021/06/18 03:45:46;;;;;;;15.98;8.25;;;;;;;15.49;75.13;94163.50;5095999;28;20106;-71
2021/06/18 03:48:13;;;;;;;18.23;8.93;;;;;;;15.44;75.79;94168.00;5100233;28;20073;-71
2021/06/18 03:50:39;;;;;;;10.68;7.60;;;;;;;15.45;75.59;94177.63;5091518;28;20407;-72
2021/06/18 03:53:08;;;;;;;13.52;8.23;;;;;;;15.45;75.69;94174.16;5100774;28;20031;-71
2021/06/18 03:55:33;;;;;;;10.90;7.63;;;;;;;15.49;76.18;94174.25;5106444;28;20028;-71
2021/06/18 03:58:00;;;;;;;13.95;8.90;;;;;;;15.55;75.74;94176.41;5097079;28;20046;-70
2021/06/18 04:00:27;;;;;;;12.43;8.70;;;;;;;15.63;75.38;94190.81;5100523;28;20051;-70
2021/06/18 04:02:54;;;;;;;25.17;10.27;;;;;;;15.70;75.36;94188.38;5093758;28;20129;-70
2021/06/18 04:05:22;;;;;;;25.70;14.68;;;;;;;15.71;75.69;94183.78;5093717;28;20532;-70
2021/06/18 04:07:50;;;;;;;26.00;16.02;;;;;;;15.80;75.98;94189.84;5100251;28;20024;-71
2021/06/18 04:10:17;;;;;;;29.33;17.15;;;;;;;15.75;75.82;94179.31;5098294;28;20028;-71
2021/06/18 04:12:44;;;;;;;29.75;16.95;;;;;;;15.74;76.06;94183.91;5100843;28;20040;-71
2021/06/18 04:15:10;;;;;;;24.02;14.68;;;;;;;15.70;75.91;94177.63;5100730;28;20043;-71
2021/06/18 04:17:39;;;;;;;25.20;13.50;;;;;;;15.62;75.31;94175.84;5104287;28;20030;-71
2021/06/18 04:20:05;;;;;;;24.30;13.98;;;;;;;15.57;76.00;94166.09;5096068;28;20042;-71
2021/06/18 04:22:32;;;;;;;25.38;13.77;;;;;;;15.53;76.33;94170.59;5107048;28;20391;-71
2021/06/18 04:24:58;;;;;;;26.27;15.45;;;;;;;15.56;76.14;94166.44;5105999;28;20356;-70
2021/06/18 04:27:24;;;;;;;27.80;15.70;;;;;;;15.60;76.46;94170.00;5111820;28;20044;-71
2021/06/18 04:29:50;;;;;;;28.65;15.70;;;;;;;15.60;76.66;94167.31;5109314;28;20073;-71
2021/06/18 04:32:15;;;;;;;28.08;15.25;;;;;;;15.62;76.48;94175.84;5092981;28;20098;-71
2021/06/18 04:34:41;;;;;;;28.75;16.17;;;;;;;15.61;76.60;94180.44;5100895;28;20406;-71
2021/06/18 04:37:07;;;;;;;42.60;16.77;;;;;;;15.62;76.97;94184.66;5097182;28;20020;-71
2021/06/18 04:39:33;;;;;;;36.85;16.35;;;;;;;15.68;76.23;94179.09;5098867;28;20024;-71
2021/06/18 04:42:00;;;;;;;29.25;15.70;;;;;;;15.70;76.06;94171.47;5098535;28;20421;-71
2021/06/18 04:44:26;;;;;;;26.42;15.10;;;;;;;15.65;75.99;94181.31;5099733;28;20108;-70
2021/06/18 04:46:51;;;;;;;32.70;16.15;;;;;;;15.59;76.18;94188.03;5100628;28;20464;-71
2021/06/18 04:49:17;;;;;;;30.98;17.77;;;;;;;15.66;76.42;94182.09;5099195;28;20040;-71
2021/06/18 04:51:42;;;;;;;34.90;17.00;;;;;;;15.74;76.73;94188.50;5105098;28;20019;-71
2021/06/18 04:54:10;;;;;;;30.50;15.98;;;;;;;15.81;76.74;94192.22;5099998;28;20044;-71
2021/06/18 04:56:40;;;;;;;29.10;15.05;;;;;;;15.90;76.50;94185.94;5107241;28;20034;-71
2021/06/18 04:59:06;;;;;;;34.15;17.33;;;;;;;16.00;76.57;94190.84;5095472;28;20078;-71
2021/06/18 05:01:31;;;;;;;34.22;16.45;;;;;;;16.06;76.33;94189.47;5092083;28;20024;-71
2021/06/18 05:03:57;;;;;;;28.95;16.70;;;;;;;16.09;76.02;94193.38;5091766;28;20024;-71
2021/06/18 05:06:23;;;;;;;29.20;15.98;;;;;;;16.17;75.71;94184.41;5108807;28;20036;-77
2021/06/18 05:08:49;;;;;;;31.40;16.23;;;;;;;16.24;75.73;94198.84;5098091;28;20093;-71
2021/06/18 05:11:14;;;;;;;28.00;15.52;;;;;;;16.35;75.55;94198.38;5105850;28;20060;-71
2021/06/18 05:13:39;;;;;;;25.70;15.75;;;;;;;16.46;75.39;94196.75;5106159;28;20042;-70
2021/06/18 05:16:05;;;;;;;22.35;14.48;;;;;;;16.56;74.58;94198.94;5111256;28;20396;-71
2021/06/18 05:18:30;;;;;;;31.08;15.75;;;;;;;16.69;73.72;94204.28;5099408;28;20035;-71
2021/06/18 05:20:56;;;;;;;25.85;14.52;;;;;;;16.81;72.88;94201.56;5096023;28;20478;-71
2021/06/18 05:23:21;;;;;;;23.05;14.30;;;;;;;16.93;72.90;94203.44;5106125;28;20027;-71
2021/06/18 05:25:47;;;;;;;23.92;13.43;;;;;;;17.03;72.43;94209.09;5094071;28;20132;-71
2021/06/18 05:28:12;;;;;;;23.10;13.85;;;;;;;17.16;72.31;94203.66;5091709;28;20503;-71
2021/06/18 05:30:38;;;;;;;25.63;13.63;;;;;;;17.25;71.58;94205.03;5102225;28;20054;-70
2021/06/18 05:33:03;;;;;;;22.10;12.43;;;;;;;17.35;71.36;94203.75;5098134;28;20043;-70
2021/06/18 05:35:28;;;;;;;20.10;11.95;;;;;;;17.43;70.96;94205.47;5103234;28;20043;-70
2021/06/18 05:37:54;;;;;;;22.85;10.38;;;;;;;17.58;70.67;94200.44;5100579;28;20055;-71
2021/06/18 05:40:20;;;;;;;19.42;10.70;;;;;;;17.69;69.86;94204.19;5109442;27;20438;-70
2021/06/18 05:42:45;;;;;;;22.73;12.15;;;;;;;17.82;68.68;94197.53;5094878;28;20020;-70
2021/06/18 05:45:11;;;;;;;15.90;10.25;;;;;;;17.92;68.23;94204.34;5107260;28;20427;-70
2021/06/18 05:47:36;;;;;;;23.35;10.85;;;;;;;18.01;68.38;94204.94;5102591;27;20044;-70
2021/06/18 05:50:06;;;;;;;22.83;11.20;;;;;;;18.15;69.01;94209.06;5102554;28;20052;-70
2021/06/18 05:52:32;;;;;;;21.15;11.43;;;;;;;18.30;68.36;94207.44;5111576;28;20072;-70
2021/06/18 05:54:58;;;;;;;19.42;11.93;;;;;;;18.40;67.92;94213.09;5108448;28;20036;-70
2021/06/18 05:57:23;;;;;;;19.77;11.70;;;;;;;18.55;67.09;94202.59;5098707;28;20051;-71
2021/06/18 05:59:49;;;;;;;28.73;10.93;;;;;;;18.69;67.23;94207.50;5098731;28;20033;-71
2021/06/18 06:02:14;;;;;;;20.92;11.05;;;;;;;18.78;66.85;94205.34;5111005;28;20072;-71
2021/06/18 06:04:39;;;;;;;17.98;9.48;;;;;;;18.84;65.38;94198.56;5111411;28;20023;-70
2021/06/18 06:07:05;;;;;;;20.30;11.40;;;;;;;18.82;65.29;94206.22;5111138;28;20023;-71
2021/06/18 06:09:30;;;;;;;20.15;10.00;;;;;;;18.88;65.64;94190.53;5098226;28;20035;-71
2021/06/18 06:11:56;;;;;;;20.05;10.65;;;;;;;18.94;66.11;94197.97;5093948;28;20440;-72
2021/06/18 06:14:21;;;;;;;19.88;9.73;;;;;;;19.02;65.64;94199.66;5110108;28;20028;-72
2021/06/18 06:16:47;;;;;;;19.25;9.43;;;;;;;19.10;65.66;94194.41;5109507;28;20020;-72
2021/06/18 06:19:13;;;;;;;16.88;9.07;;;;;;;19.19;65.25;94195.75;5108146;28;20020;-71
2021/06/18 06:21:43;;;;;;;20.08;9.73;;;;;;;19.32;64.63;94174.72;5095381;28;20020;-71
2021/06/18 06:24:11;;;;;;;22.50;9.63;;;;;;;19.39;64.08;94180.22;5110484;28;20027;-73
2021/06/18 06:26:36;;;;;;;21.35;8.93;;;;;;;19.47;64.20;94183.84;5094856;28;20456;-71
2021/06/18 06:29:02;;;;;;;23.33;9.95;;;;;;;19.56;64.20;94180.88;5092590;28;20110;-71
2021/06/18 06:31:28;;;;;;;21.80;10.40;;;;;;;19.68;64.16;94164.44;5110529;28;20027;-71
2021/06/18 06:33:53;;;;;;;23.48;10.07;;;;;;;19.74;64.02;94163.06;5105584;28;20027;-71
2021/06/18 06:36:19;;;;;;;13.45;9.07;;;;;;;19.72;64.09;94167.25;5089516;28;20115;-71
2021/06/18 06:38:44;;;;;;;22.45;10.35;;;;;;;19.80;64.17;94164.31;5089879;28;20024;-70
2021/06/18 06:41:10;;;;;;;20.27;9.95;;;;;;;19.90;63.99;94170.22;5090206;28;20403;-68
2021/06/18 06:43:36;;;;;;;17.38;8.82;;;;;;;19.82;65.08;94166.63;5089740;28;20074;-68
2021/06/18 06:46:01;;;;;;;15.77;8.93;;;;;;;19.84;63.70;94167.03;5089854;28;20052;-70
2021/06/18 06:48:26;;;;;;;19.48;10.05;;;;;;;19.72;65.30;94178.06;5089447;28;20030;-73
2021/06/18 06:50:52;;;;;;;14.25;10.18;;;;;;;19.66;63.71;94177.56;5089655;28;20064;-69
2021/06/18 06:53:18;;;;;;;17.58;10.20;;;;;;;19.65;64.19;94163.25;5089603;28;20061;-69
2021/06/18 06:55:43;;;;;;;20.45;10.10;;;;;;;19.64;64.35;94169.81;5090020;28;20020;-69
2021/06/18 06:58:09;;;;;;;21.27;10.38;;;;;;;19.75;64.28;94166.53;5089900;28;20476;-69
2021/06/18 07:00:34;;;;;;;14.15;9.40;;;;;;;19.77;64.35;94159.63;5089557;28;20015;-70
2021/06/18 07:02:59;;;;;;;17.83;10.18;;;;;;;19.81;64.90;94156.97;5088144;28;20085;-69
2021/06/18 07:05:25;;;;;;;16.60;10.18;;;;;;;19.90;64.31;94151.28;5087895;28;20550;-77
2021/06/18 07:07:50;;;;;;;21.88;10.13;;;;;;;20.02;63.05;94148.38;5106372;28;20054;-78
2021/06/18 07:10:16;;;;;;;16.85;9.32;;;;;;;20.05;62.89;94144.94;5108987;28;20494;-78
2021/06/18 07:12:41;;;;;;;17.27;9.55;;;;;;;20.10;62.13;94141.13;5090331;28;20131;-76
2021/06/18 07:15:07;;;;;;;21.55;10.23;;;;;;;20.18;62.41;94142.78;5107165;28;20394;-75
2021/06/18 07:17:33;;;;;;;17.10;9.55;;;;;;;20.30;61.45;94139.84;5104769;28;20020;-75
2021/06/18 07:20:00;;;;;;;21.40;10.95;;;;;;;20.31;62.55;94135.97;5089982;28;20399;-75
2021/06/18 07:22:26;;;;;;;28.67;11.40;;;;;;;20.43;61.51;94137.66;5090001;28;20103;-74
2021/06/18 07:24:52;;;;;;;21.05;10.13;;;;;;;20.54;61.28;94135.88;5089474;28;20173;-72
2021/06/18 07:27:20;;;;;;;24.58;9.35;;;;;;;20.67;60.91;94141.06;5092509;28;20093;-75
2021/06/18 07:29:45;;;;;;;14.52;8.68;;;;;;;20.77;60.67;94130.34;5088057;28;20120;-73
2021/06/18 07:32:11;;;;;;;14.93;8.65;;;;;;;20.96;59.38;94132.06;5105673;28;20111;-74
2021/06/18 07:34:36;;;;;;;18.60;7.90;;;;;;;21.04;60.28;94130.22;5107211;28;20028;-73
2021/06/18 07:37:03;;;;;;;17.65;8.63;;;;;;;21.16;59.42;94131.88;5087862;28;20020;-74
2021/06/18 07:39:29;;;;;;;16.95;5.53;;;;;;;21.21;56.68;94131.56;5090334;28;20098;-73
2021/06/18 07:41:54;;;;;;;9.85;5.57;;;;;;;21.32;55.94;94129.69;5094598;28;20031;-74
2021/06/18 07:44:19;;;;;;;8.45;5.15;;;;;;;21.34;54.26;94124.69;5102646;28;20182;-74
2021/06/18 07:46:45;;;;;;;8.70;4.40;;;;;;;21.28;53.93;94123.47;5100445;28;20035;-73
2021/06/18 07:49:10;;;;;;;12.75;3.70;;;;;;;21.31;54.78;94120.03;5099456;28;20026;-74
2021/06/18 07:51:36;;;;;;;11.88;4.00;;;;;;;21.41;55.07;94118.53;5109785;28;20020;-74
2021/06/18 07:54:02;;;;;;;9.35;3.67;;;;;;;21.41;53.45;94124.75;5097075;28;20023;-74
2021/06/18 07:56:30;;;;;;;11.27;3.88;;;;;;;21.48;53.76;94113.19;5108693;28;20081;-74
2021/06/18 07:58:56;;;;;;;8.95;3.75;;;;;;;21.55;54.09;94121.38;5111682;28;20034;-74
2021/06/18 08:01:21;;;;;;;10.25;3.42;;;;;;;21.68;52.95;94121.09;5112999;28;20012;-74
2021/06/18 08:03:47;;;;;;;11.85;3.30;;;;;;;21.70;54.08;94129.66;5113175;28;20028;-72
2021/06/18 08:06:13;;;;;;;8.73;3.55;;;;;;;21.82;53.21;94119.25;5113179;28;20118;-73
2021/06/18 08:08:38;;;;;;;6.80;4.05;;;;;;;21.94;53.36;94128.22;5113420;28;20062;-74
2021/06/18 08:11:04;;;;;;;8.20;4.13;;;;;;;22.10;52.69;94120.56;5112985;28;20122;-74
2021/06/18 08:13:30;;;;;;;11.52;3.75;;;;;;;22.21;52.88;94124.13;5113083;28;20036;-74
2021/06/18 08:15:55;;;;;;;10.75;4.32;;;;;;;22.28;51.54;94128.81;5112996;27;20089;-75
2021/06/18 08:18:21;;;;;;;9.68;3.55;;;;;;;22.36;52.51;94116.84;5111509;28;20035;-74
2021/06/18 08:20:47;;;;;;;8.55;4.00;;;;;;;22.42;51.16;94115.31;5112857;28;20099;-74
2021/06/18 08:23:13;;;;;;;11.15;3.83;;;;;;;22.48;50.99;94118.44;5112782;28;20099;-74
2021/06/18 08:25:38;;;;;;;6.63;3.67;;;;;;;22.56;50.15;94111.88;5111959;28;20074;-74
2021/06/18 08:28:04;;;;;;;8.95;3.10;;;;;;;22.59;49.14;94110.31;5091076;28;20023;-74
2021/06/18 08:30:30;;;;;;;7.28;2.90;;;;;;;22.53;48.49;94115.38;5092265;28;20020;-74
2021/06/18 08:32:55;;;;;;;9.40;2.90;;;;;;;22.59;48.58;94102.97;5090924;28;20395;-75
2021/06/18 08:35:21;;;;;;;9.13;3.55;;;;;;;22.60;49.23;94106.44;5092482;28;20135;-74
2021/06/18 08:37:47;;;;;;;6.88;2.83;;;;;;;22.69;48.29;94100.66;5091161;28;20032;-74
2021/06/18 08:40:13;;;;;;;5.43;2.60;;;;;;;22.84;48.46;94099.53;5090844;28;20066;-75
2021/06/18 08:42:39;;;;;;;5.40;2.90;;;;;;;22.85;47.86;94103.78;5091885;28;20020;-74
2021/06/18 08:45:06;;;;;;;4.50;1.92;;;;;;;22.98;44.34;94102.28;5091992;28;20407;-75
2021/06/18 08:47:31;;;;;;;4.88;1.92;;;;;;;23.11;43.92;94101.94;5101481;28;20475;-75
2021/06/18 08:49:57;;;;;;;9.02;2.63;;;;;;;23.27;46.44;94112.44;5112698;28;20062;-74
2021/06/18 08:52:22;;;;;;;5.68;3.00;;;;;;;23.41;47.96;94099.59;5112661;28;20482;-75
2021/06/18 08:54:50;;;;;;;5.38;2.88;;;;;;;23.52;47.52;94096.09;5112016;27;20035;-74
2021/06/18 08:57:18;;;;;;;7.05;2.88;;;;;;;23.67;46.79;94094.94;5092679;28;20023;-74
2021/06/18 08:59:45;;;;;;;7.20;2.97;;;;;;;23.82;44.50;94084.81;5090833;28;20028;-75
2021/06/18 09:02:11;;;;;;;11.60;3.15;;;;;;;23.99;45.15;94089.44;5091551;28;20015;-74
2021/06/18 09:05:06;;;;;;;5.97;2.67;;;;;;;24.30;44.46;94092.47;5094549;28;20031;-75
2021/06/18 09:08:02;;;;;;;6.82;2.80;;;;;;;24.45;43.75;94093.19;5090224;28;20020;-74
2021/06/18 09:10:35;;;;;;;4.82;2.45;;;;;;;24.51;41.76;94091.63;5091464;28;20023;-74
2021/06/18 09:13:34;;;;;;;4.40;2.20;;;;;;;24.48;41.09;94084.19;5091284;28;20040;-75
2021/06/18 09:16:01;;;;;;;3.70;2.05;;;;;;;24.33;40.25;94088.16;5091499;28;20024;-78
2021/06/18 09:18:40;;;;;;;3.17;2.17;;;;;;;24.26;41.25;94083.50;5091542;28;20085;-78
2021/06/18 09:21:21;;;;;;;3.92;1.63;;;;;;;24.25;39.97;94081.19;5103583;28;20553;-78
2021/06/18 09:23:54;;;;;;;7.18;1.80;;;;;;;24.30;41.00;94095.19;5112455;28;20027;-77
2021/06/18 09:26:26;;;;;;;5.97;1.70;;;;;;;24.34;40.44;94095.94;5112076;28;20057;-78
2021/06/18 09:29:09;;;;;;;5.18;1.83;;;;;;;24.25;40.47;94092.09;5102831;28;20020;-77
2021/06/18 09:31:41;;;;;;;5.53;2.33;;;;;;;24.29;40.15;94087.41;5097552;28;20023;-78
2021/06/18 09:34:08;;;;;;;4.17;2.37;;;;;;;24.20;40.90;94085.88;5111980;28;20594;-78
2021/06/18 09:36:37;;;;;;;4.22;1.88;;;;;;;24.08;41.70;94080.88;5113476;28;20743;-74
2021/06/18 09:39:07;;;;;;;5.28;2.08;;;;;;;24.11;41.65;94085.50;5103805;28;20513;-75
2021/06/18 09:41:37;;;;;;;11.93;2.47;;;;;;;24.15;42.55;94078.09;5107842;28;20068;-74
2021/06/18 09:44:21;;;;;;;5.10;2.28;;;;;;;24.29;41.95;94079.25;5101400;28;20058;-75
2021/06/18 09:46:51;;;;;;;6.70;2.72;;;;;;;24.46;42.67;94070.19;5096984;28;20509;-74
2021/06/18 09:49:29;;;;;;;3.22;2.45;;;;;;;24.63;41.89;94072.09;5105991;28;20023;-75
2021/06/18 09:52:12;;;;;;;5.13;1.90;;;;;;;24.68;40.68;94073.63;5100296;28;20036;-74
2021/06/18 09:54:42;;;;;;;6.80;2.08;;;;;;;24.74;40.76;94065.81;5108846;28;20110;-79
2021/06/18 09:57:12;;;;;;;4.47;2.50;;;;;;;24.80;41.23;94064.97;5110034;28;20050;-77
2021/06/18 09:59:52;;;;;;;4.82;2.20;;;;;;;24.78;41.36;94059.16;5110404;28;20053;-77
2021/06/18 10:02:20;;;;;;;3.90;2.25;;;;;;;24.91;40.62;94058.69;5111205;28;20030;-76
2021/06/18 10:04:48;;;;;;;9.05;2.35;;;;;;;25.06;40.44;94065.59;5107126;28;20495;-80
2021/06/18 10:07:15;;;;;;;3.55;2.13;;;;;;;24.97;40.04;94049.69;5109973;28;20035;-80
2021/06/18 10:09:40;;;;;;;9.63;1.70;;;;;;;24.96;37.84;94050.84;5101536;28;20471;-80
2021/06/18 10:12:07;;;;;;;6.20;1.90;;;;;;;24.96;39.49;94056.31;5092174;28;20080;-81
2021/06/18 10:14:33;;;;;;;7.07;1.83;;;;;;;24.99;39.42;94049.28;5108966;28;20035;-79
2021/06/18 10:17:00;;;;;;;3.55;1.90;;;;;;;25.01;36.68;94050.44;5109125;28;20039;-80
2021/06/18 10:19:25;;;;;;;10.98;1.92;;;;;;;25.02;37.81;94051.22;5097556;28;20024;-80
2021/06/18 10:22:01;;;;;;;3.38;1.60;;;;;;;25.12;37.07;94052.31;5089258;28;20089;-81
2021/06/18 10:24:35;;;;;;;4.60;1.73;;;;;;;25.12;38.03;94047.63;5097651;28;20028;-79
2021/06/18 10:27:01;;;;;;;6.30;2.05;;;;;;;25.19;38.50;94046.78;5089360;28;20028;-81
2021/06/18 10:29:30;;;;;;;4.93;2.13;;;;;;;25.26;37.62;94052.22;5089132;28;20023;-81
2021/06/18 10:31:56;;;;;;;5.38;1.60;;;;;;;25.14;38.25;94044.50;5093610;28;20116;-80
2021/06/18 10:34:38;;;;;;;8.15;2.03;;;;;;;25.11;38.03;94043.34;5101114;28;20055;-76
2021/06/18 10:37:22;;;;;;;9.88;1.85;;;;;;;25.11;38.41;94037.13;5109280;28;20027;-77
2021/06/18 10:39:55;;;;;;;4.30;1.73;;;;;;;25.08;37.75;94043.38;5109274;28;20027;-78
2021/06/18 10:42:22;;;;;;;2.60;1.60;;;;;;;25.14;37.95;94047.25;5109232;28;20399;-81
2021/06/18 10:44:52;;;;;;;2.85;1.50;;;;;;;25.11;38.62;94040.63;5089758;28;20032;-79
2021/06/18 10:47:31;;;;;;;6.35;2.05;;;;;;;24.96;38.60;94041.91;5097951;28;20205;-81
2021/06/18 10:49:57;;;;;;;4.22;2.13;;;;;;;24.79;39.20;94036.19;5105729;28;20039;-78
2021/06/18 10:52:34;;;;;;;4.90;1.83;;;;;;;24.71;39.17;94031.16;5098194;28;20039;-80
2021/06/18 10:54:59;;;;;;;2.13;1.45;;;;;;;24.62;39.38;94035.09;5110278;28;20360;-79
2021/06/18 10:57:26;;;;;;;3.75;1.88;;;;;;;24.52;41.13;94037.91;5091021;28;20024;-78
2021/06/18 10:59:56;;;;;;;3.30;2.00;;;;;;;24.40;40.10;94033.66;5094117;28;20027;-78
2021/06/18 11:04:56;;;;;;;3.50;1.95;;;;;;;24.21;42.30;94030.22;5089677;28;20173;-78
2021/06/18 11:07:33;;;;;;;4.45;1.98;;;;;;;24.11;42.06;94022.13;5094054;28;20028;-81
2021/06/18 11:10:00;;;;;;;4.70;2.05;;;;;;;24.08;44.37;94022.91;5088393;28;20032;-80
2021/06/18 11:12:26;;;;;;;13.05;2.10;;;;;;;24.06;43.01;94026.03;5096896;28;20043;-80
2021/06/18 11:15:07;;;;;;;5.35;2.13;;;;;;;24.17;42.93;94024.03;5091013;28;20475;-79
2021/06/18 11:17:52;;;;;;;3.40;2.10;;;;;;;24.21;43.08;94024.00;5088434;28;20020;-79
2021/06/18 11:20:41;;;;;;;4.72;1.92;;;;;;;24.23;42.28;94021.66;5088484;28;20131;-79
2021/06/18 11:23:16;;;;;;;5.10;2.08;;;;;;;24.18;42.09;94016.63;5098254;28;20034;-80
2021/06/18 11:25:44;;;;;;;3.65;2.20;;;;;;;24.17;42.88;94010.41;5094990;28;20023;-78
2021/06/18 11:28:19;;;;;;;3.30;1.98;;;;;;;24.10;42.93;94018.63;5111518;28;20024;-79
2021/06/18 11:30:56;;;;;;;6.40;2.40;;;;;;;24.00;43.93;94009.31;5112690;28;20504;-78
2021/06/18 11:33:40;;;;;;;3.78;1.90;;;;;;;23.92;43.08;94007.03;5100725;28;20109;-79
2021/06/18 11:36:07;;;;;;;3.45;1.88;;;;;;;23.80;44.46;94006.28;5092082;28;20020;-78